Time;durP1;ratioP1;P1;durP2;ratioP2;P2;SDS_P1;SDS_P2;PMS_P1;PMS_P2;Temp;Humidity;BMP_temperature;BMP_pressure;BME280_temperature;BME280_humidity;BME280_pressure;Samples;Min_cycle;Max_cycle;Signal;HPM_P1;HPM_P2
2021/07/09 00:02:03;;;;;;;3.05;2.88;;;23.10;80.80;;;;;;5054980;28;20190;-74
2021/07/09 00:04:28;;;;;;;3.83;3.53;;;23.10;80.60;;;;;;5066331;28;20216;-75
2021/07/09 00:06:57;;;;;;;3.42;3.33;;;23.10;80.90;;;;;;5060118;28;20211;-75
2021/07/09 00:09:25;;;;;;;3.17;3.05;;;23.10;81.20;;;;;;5064737;28;20576;-75
2021/07/09 00:11:54;;;;;;;3.38;3.28;;;23.00;81.00;;;;;;5061364;28;20203;-75
2021/07/09 00:14:26;;;;;;;3.53;3.35;;;23.00;81.70;;;;;;5063083;28;20255;-75
2021/07/09 00:16:51;;;;;;;3.60;3.30;;;23.00;81.10;;;;;;5065125;28;20590;-74
2021/07/09 00:19:17;;;;;;;3.40;3.30;;;22.90;81.20;;;;;;5063256;28;20244;-74
2021/07/09 00:21:43;;;;;;;3.08;2.97;;;22.90;81.40;;;;;;5067829;28;20718;-75
2021/07/09 00:24:09;;;;;;;3.28;2.95;;;22.90;81.50;;;;;;5067269;28;20488;-75
2021/07/09 00:26:36;;;;;;;3.13;3.03;;;22.90;81.90;;;;;;5068002;28;20674;-74
2021/07/09 00:29:02;;;;;;;4.93;3.22;;;22.80;81.90;;;;;;5060580;28;20236;-74
2021/07/09 00:31:30;;;;;;;3.35;3.25;;;22.80;82.20;;;;;;5063058;28;20220;-75
2021/07/09 00:33:57;;;;;;;3.35;3.25;;;22.70;82.00;;;;;;5066909;28;20180;-75
2021/07/09 00:36:23;;;;;;;3.17;3.08;;;22.60;82.00;;;;;;5062113;28;20226;-75
2021/07/09 00:38:49;;;;;;;3.05;2.80;;;22.60;82.10;;;;;;5054272;28;20188;-75
2021/07/09 00:41:16;;;;;;;3.17;3.08;;;22.50;82.80;;;;;;5058090;28;20278;-74
2021/07/09 00:43:41;;;;;;;3.17;3.08;;;22.40;82.30;;;;;;5059403;28;20603;-75
2021/07/09 00:46:07;;;;;;;3.28;3.03;;;22.40;82.40;;;;;;5059025;28;20590;-75
2021/07/09 00:48:34;;;;;;;2.80;2.70;;;22.30;82.90;;;;;;5052757;28;20210;-75
2021/07/09 00:51:08;;;;;;;3.00;2.90;;;22.20;82.70;;;;;;5058552;28;20200;-75
2021/07/09 00:53:34;;;;;;;3.10;3.00;;;22.20;82.50;;;;;;5063924;28;20190;-75
2021/07/09 00:56:02;;;;;;;3.05;2.95;;;22.10;83.20;;;;;;5063743;28;20218;-74
2021/07/09 00:58:28;;;;;;;2.70;2.60;;;22.10;83.10;;;;;;5066502;28;20678;-74
2021/07/09 01:00:55;;;;;;;2.25;2.25;;;22.00;83.30;;;;;;5066580;28;20239;-75
2021/07/09 01:03:21;;;;;;;3.28;3.17;;;22.00;83.30;;;;;;5055727;28;20292;-74
2021/07/09 01:05:47;;;;;;;3.10;3.00;;;21.90;83.30;;;;;;5064450;28;20711;-74
2021/07/09 01:08:13;;;;;;;2.90;2.80;;;21.90;83.30;;;;;;5055905;28;20191;-75
2021/07/09 01:10:43;;;;;;;2.97;2.83;;;21.80;83.30;;;;;;5064032;28;20178;-74
2021/07/09 01:13:10;;;;;;;3.22;3.10;;;21.80;83.20;;;;;;5055224;28;20633;-75
2021/07/09 01:15:36;;;;;;;7.80;3.50;;;21.80;83.30;;;;;;5064505;28;20210;-75
2021/07/09 01:18:03;;;;;;;4.05;3.85;;;21.80;83.60;;;;;;5056761;28;20563;-74
2021/07/09 01:20:29;;;;;;;4.03;3.28;;;21.70;83.70;;;;;;5066263;28;20704;-75
2021/07/09 01:22:56;;;;;;;4.32;3.95;;;21.70;83.70;;;;;;5066283;28;20545;-75
2021/07/09 01:25:28;;;;;;;6.80;3.65;;;21.70;83.90;;;;;;5068980;28;20687;-74
2021/07/09 01:27:59;;;;;;;3.95;3.55;;;21.60;83.80;;;;;;5058655;28;20175;-74
2021/07/09 01:30:27;;;;;;;4.22;4.03;;;21.60;83.90;;;;;;5062060;28;20252;-75
2021/07/09 01:32:53;;;;;;;4.70;4.30;;;21.60;84.40;;;;;;5064306;28;20193;-74
2021/07/09 01:35:20;;;;;;;4.15;3.78;;;21.60;84.50;;;;;;5064320;28;20226;-74
2021/07/09 01:37:57;;;;;;;5.18;3.65;;;21.50;84.50;;;;;;5052696;28;20186;-75
2021/07/09 01:40:23;;;;;;;4.20;3.88;;;21.50;84.40;;;;;;5052034;28;20236;-74
2021/07/09 01:42:50;;;;;;;4.03;3.83;;;21.40;84.80;;;;;;5062897;28;20668;-75
2021/07/09 01:45:15;;;;;;;3.75;3.42;;;21.40;85.00;;;;;;5051698;28;20183;-74
2021/07/09 01:47:41;;;;;;;3.83;3.70;;;21.30;85.50;;;;;;5065583;28;20810;-75
2021/07/09 01:50:07;;;;;;;3.13;3.03;;;21.30;85.10;;;;;;5067270;28;20182;-75
2021/07/09 01:52:33;;;;;;;3.65;3.53;;;21.20;85.70;;;;;;5067218;28;20179;-75
2021/07/09 01:54:59;;;;;;;2.83;2.72;;;21.20;86.20;;;;;;5066875;28;20175;-75
2021/07/09 01:57:27;;;;;;;3.33;3.22;;;21.10;85.40;;;;;;5065451;28;20183;-75
2021/07/09 01:59:53;;;;;;;3.20;2.80;;;21.10;86.30;;;;;;5066283;28;20214;-75
2021/07/09 02:02:19;;;;;;;2.95;2.85;;;21.00;85.40;;;;;;5061596;28;20185;-75
2021/07/09 02:04:56;;;;;;;3.45;2.83;;;21.00;85.30;;;;;;5068069;28;20205;-75
2021/07/09 02:07:24;;;;;;;3.22;3.05;;;21.00;85.30;;;;;;5067667;28;20218;-75
2021/07/09 02:09:54;;;;;;;3.08;2.88;;;21.00;85.40;;;;;;5066752;28;20183;-75
2021/07/09 02:12:23;;;;;;;3.13;2.92;;;21.00;85.50;;;;;;5066956;28;20171;-75
2021/07/09 02:14:49;;;;;;;2.85;2.70;;;21.00;85.70;;;;;;5067088;28;20575;-75
2021/07/09 02:17:17;;;;;;;2.97;2.70;;;21.00;85.70;;;;;;5066098;28;20183;-75
2021/07/09 02:19:44;;;;;;;2.90;2.80;;;21.00;85.60;;;;;;5065425;28;20179;-75
2021/07/09 02:22:13;;;;;;;3.58;3.08;;;21.00;85.90;;;;;;5065811;28;20179;-73
2021/07/09 02:24:43;;;;;;;2.80;2.70;;;21.00;85.80;;;;;;5066723;28;20171;-74
2021/07/09 02:27:10;;;;;;;3.65;3.08;;;21.00;86.30;;;;;;5066459;28;20189;-74
2021/07/09 02:29:36;;;;;;;3.13;2.92;;;21.00;86.10;;;;;;5061710;28;20671;-74
2021/07/09 02:32:04;;;;;;;3.17;3.08;;;21.00;86.30;;;;;;5064801;28;20175;-74
2021/07/09 02:34:31;;;;;;;3.53;3.25;;;21.00;86.30;;;;;;5065757;28;20187;-74
2021/07/09 02:36:57;;;;;;;2.63;2.63;;;20.90;86.60;;;;;;5060517;28;20620;-74
2021/07/09 02:39:26;;;;;;;3.08;2.90;;;20.90;87.10;;;;;;5053668;28;20191;-74
2021/07/09 02:41:56;;;;;;;3.35;3.08;;;20.80;87.00;;;;;;5060214;28;20195;-75
2021/07/09 02:44:22;;;;;;;4.32;2.63;;;20.80;86.80;;;;;;5061236;28;20187;-75
2021/07/09 02:46:49;;;;;;;2.88;2.67;;;20.70;87.50;;;;;;5057504;28;20176;-75
2021/07/09 02:49:15;;;;;;;3.60;3.40;;;20.70;88.20;;;;;;5056066;28;20184;-75
2021/07/09 02:51:42;;;;;;;2.80;2.60;;;20.60;88.40;;;;;;5059568;28;20656;-75
2021/07/09 02:54:08;;;;;;;2.85;2.75;;;20.60;88.70;;;;;;5060781;28;20179;-75
2021/07/09 02:56:34;;;;;;;3.35;2.78;;;20.50;88.40;;;;;;5064554;28;20210;-75
2021/07/09 02:59:00;;;;;;;2.75;2.65;;;20.50;88.80;;;;;;5065469;28;20270;-75
2021/07/09 03:01:26;;;;;;;4.22;3.17;;;20.50;88.90;;;;;;5061157;28;20268;-75
2021/07/09 03:03:52;;;;;;;3.55;3.25;;;20.50;88.90;;;;;;5059105;28;20688;-75
2021/07/09 03:06:19;;;;;;;2.75;2.70;;;20.50;88.80;;;;;;5059577;28;20665;-75
2021/07/09 03:08:45;;;;;;;2.92;2.83;;;20.50;89.20;;;;;;5075114;28;20689;-75
2021/07/09 03:11:10;;;;;;;2.55;2.45;;;20.50;89.10;;;;;;5060664;28;20186;-75
2021/07/09 03:13:36;;;;;;;2.65;2.55;;;20.50;89.10;;;;;;5063483;28;20275;-75
2021/07/09 03:16:02;;;;;;;2.72;2.55;;;20.50;89.30;;;;;;5061846;28;20226;-75
2021/07/09 03:18:27;;;;;;;4.85;2.50;;;20.50;89.10;;;;;;5063082;28;20258;-75
2021/07/09 03:20:54;;;;;;;2.90;2.80;;;20.50;89.20;;;;;;5068916;28;20186;-75
2021/07/09 03:23:20;;;;;;;2.58;2.47;;;20.50;89.30;;;;;;5068546;28;20190;-75
2021/07/09 03:25:46;;;;;;;2.80;2.65;;;20.50;89.20;;;;;;5067586;28;20258;-75
2021/07/09 03:28:11;;;;;;;3.38;3.17;;;20.50;88.90;;;;;;5062044;28;20270;-75
2021/07/09 03:30:37;;;;;;;3.45;3.15;;;20.60;89.00;;;;;;5059551;28;20180;-75
2021/07/09 03:33:03;;;;;;;3.28;3.15;;;20.60;88.60;;;;;;5065708;28;20179;-75
2021/07/09 03:35:29;;;;;;;7.68;2.95;;;20.60;88.30;;;;;;5065466;28;20660;-75
2021/07/09 03:37:54;;;;;;;3.10;3.00;;;20.60;88.10;;;;;;5057872;28;20661;-75
2021/07/09 03:40:20;;;;;;;2.90;2.80;;;20.60;88.00;;;;;;5055572;28;20669;-75
2021/07/09 03:42:46;;;;;;;2.67;2.58;;;20.60;88.20;;;;;;5064880;28;20202;-75
2021/07/09 03:45:12;;;;;;;3.30;3.00;;;20.50;88.10;;;;;;5057462;28;20708;-75
2021/07/09 03:47:37;;;;;;;3.17;3.03;;;20.60;87.90;;;;;;5059870;28;20184;-75
2021/07/09 03:50:05;;;;;;;2.67;2.47;;;20.50;88.00;;;;;;5057878;28;20200;-75
2021/07/09 03:52:31;;;;;;;3.78;2.97;;;20.60;87.80;;;;;;5065676;28;20621;-75
2021/07/09 03:54:57;;;;;;;2.67;2.58;;;20.60;87.90;;;;;;5064354;28;20465;-75
2021/07/09 03:57:23;;;;;;;2.75;2.65;;;20.60;88.20;;;;;;5067896;28;20676;-75
2021/07/09 03:59:48;;;;;;;2.55;2.45;;;20.70;88.30;;;;;;5068060;28;20588;-75
2021/07/09 04:02:14;;;;;;;2.65;2.58;;;20.70;88.60;;;;;;5063976;28;20700;-75
2021/07/09 04:04:40;;;;;;;3.20;3.10;;;20.70;88.50;;;;;;5066027;28;20255;-75
2021/07/09 04:07:06;;;;;;;2.70;2.60;;;20.70;88.60;;;;;;5066903;28;20189;-75
2021/07/09 04:09:32;;;;;;;2.92;2.83;;;20.80;88.50;;;;;;5066080;28;20571;-75
2021/07/09 04:11:58;;;;;;;2.97;2.88;;;20.80;88.80;;;;;;5067138;28;20816;-75
2021/07/09 04:14:24;;;;;;;3.08;2.90;;;20.80;88.80;;;;;;5066192;28;20576;-75
2021/07/09 04:16:49;;;;;;;2.70;2.60;;;20.90;89.00;;;;;;5067065;28;20210;-75
2021/07/09 04:19:15;;;;;;;2.67;2.58;;;20.90;88.90;;;;;;5064919;28;20179;-75
2021/07/09 04:21:41;;;;;;;3.03;2.70;;;21.00;88.80;;;;;;5067014;28;20207;-75
2021/07/09 04:24:07;;;;;;;2.53;2.42;;;21.00;88.60;;;;;;5082231;28;20205;-75
2021/07/09 04:26:34;;;;;;;2.78;2.67;;;21.10;88.70;;;;;;5069960;28;20185;-75
2021/07/09 04:29:00;;;;;;;3.00;2.80;;;21.10;89.00;;;;;;5062168;28;20647;-75
2021/07/09 04:31:25;;;;;;;2.88;2.78;;;21.20;88.90;;;;;;5065792;28;20536;-75
2021/07/09 04:33:51;;;;;;;3.05;2.67;;;21.20;89.20;;;;;;5067532;28;20179;-75
2021/07/09 04:36:17;;;;;;;2.80;2.70;;;21.20;89.60;;;;;;5072040;28;20207;-75
2021/07/09 04:38:43;;;;;;;3.00;2.83;;;21.20;89.10;;;;;;5068686;28;20175;-75
2021/07/09 04:41:09;;;;;;;2.58;2.47;;;21.20;89.10;;;;;;5066894;28;20211;-76
2021/07/09 04:43:38;;;;;;;4.20;2.63;;;21.20;89.20;;;;;;5068114;28;20186;-74
2021/07/09 04:46:08;;;;;;;2.78;2.67;;;21.30;89.20;;;;;;5081313;28;20191;-75
2021/07/09 04:48:34;;;;;;;3.45;2.92;;;21.30;88.90;;;;;;5058875;28;20182;-76
2021/07/09 04:51:01;;;;;;;7.22;3.30;;;21.30;88.80;;;;;;5068396;28;20200;-76
2021/07/09 04:53:28;;;;;;;2.95;2.78;;;21.40;88.80;;;;;;5067852;28;20177;-75
2021/07/09 04:55:53;;;;;;;2.97;2.88;;;21.40;89.40;;;;;;5067022;28;20206;-76
2021/07/09 04:58:19;;;;;;;3.08;2.95;;;21.40;89.00;;;;;;5068149;28;20323;-75
2021/07/09 05:00:45;;;;;;;2.92;2.83;;;21.50;88.80;;;;;;5068120;28;20248;-75
2021/07/09 05:03:11;;;;;;;4.22;3.10;;;21.50;88.70;;;;;;5068243;28;20174;-76
2021/07/09 05:05:38;;;;;;;3.53;3.42;;;21.60;88.70;;;;;;5068202;28;20691;-76
2021/07/09 05:08:05;;;;;;;5.55;3.35;;;21.60;88.50;;;;;;5067562;28;20224;-76
2021/07/09 05:10:30;;;;;;;2.83;2.72;;;21.70;88.20;;;;;;5067461;28;20635;-75
2021/07/09 05:12:56;;;;;;;3.78;3.42;;;21.70;88.30;;;;;;5068042;28;20542;-76
2021/07/09 05:15:22;;;;;;;3.42;3.20;;;21.80;88.10;;;;;;5067760;28;20213;-75
2021/07/09 05:17:48;;;;;;;3.45;3.25;;;21.80;88.10;;;;;;5067592;28;20186;-75
2021/07/09 05:20:14;;;;;;;5.85;3.28;;;21.90;88.00;;;;;;5067550;28;20183;-74
2021/07/09 05:22:40;;;;;;;3.85;3.60;;;21.90;88.00;;;;;;5067740;28;20191;-74
2021/07/09 05:25:07;;;;;;;3.92;3.72;;;22.00;87.80;;;;;;5067510;28;20211;-74
2021/07/09 05:27:33;;;;;;;4.40;3.90;;;22.00;87.50;;;;;;5066292;28;20190;-75
2021/07/09 05:29:59;;;;;;;3.53;3.38;;;22.00;87.50;;;;;;5067838;28;20222;-75
2021/07/09 05:32:26;;;;;;;3.60;3.30;;;22.10;87.50;;;;;;5066821;28;20177;-74
2021/07/09 05:34:54;;;;;;;4.05;3.80;;;22.10;87.70;;;;;;5068913;28;20197;-74
2021/07/09 05:37:20;;;;;;;4.13;3.92;;;22.10;87.60;;;;;;5053942;28;20280;-74
2021/07/09 05:39:47;;;;;;;3.85;3.70;;;22.20;87.40;;;;;;5061729;28;20178;-75
2021/07/09 05:42:13;;;;;;;4.78;3.97;;;22.20;87.30;;;;;;5058461;28;20199;-74
2021/07/09 05:44:40;;;;;;;3.70;3.50;;;22.30;87.20;;;;;;5064937;28;20174;-74
2021/07/09 05:47:05;;;;;;;3.22;3.08;;;22.30;87.20;;;;;;5054588;28;20266;-75
2021/07/09 05:49:31;;;;;;;4.32;4.13;;;22.40;87.30;;;;;;5064042;28;20271;-75
2021/07/09 05:51:57;;;;;;;4.55;4.20;;;22.40;87.10;;;;;;5060499;28;20645;-75
2021/07/09 05:54:22;;;;;;;4.63;3.53;;;22.50;87.00;;;;;;5062243;28;20245;-75
2021/07/09 05:56:48;;;;;;;4.20;3.67;;;22.50;86.80;;;;;;5066089;28;20708;-75
2021/07/09 05:59:14;;;;;;;3.90;3.80;;;22.50;86.80;;;;;;5064427;28;20225;-75
2021/07/09 06:01:40;;;;;;;8.63;3.92;;;22.60;87.30;;;;;;5065937;28;20213;-75
2021/07/09 06:04:06;;;;;;;3.38;3.28;;;22.60;87.00;;;;;;5065554;28;20218;-74
2021/07/09 06:06:31;;;;;;;3.70;3.50;;;22.60;86.60;;;;;;5065866;28;20723;-76
2021/07/09 06:08:57;;;;;;;6.25;4.63;;;22.70;87.00;;;;;;5065684;28;20183;-75
2021/07/09 06:11:25;;;;;;;4.28;4.07;;;22.70;87.00;;;;;;5065683;28;20182;-75
2021/07/09 06:13:52;;;;;;;3.97;3.83;;;22.70;87.50;;;;;;5065547;28;20273;-75
2021/07/09 06:16:18;;;;;;;4.47;4.18;;;22.70;87.00;;;;;;5065404;28;20215;-75
2021/07/09 06:18:44;;;;;;;4.28;3.97;;;22.80;87.10;;;;;;5065843;28;20182;-75
2021/07/09 06:21:09;;;;;;;4.88;4.57;;;22.90;87.50;;;;;;5065718;28;20262;-75
2021/07/09 06:23:35;;;;;;;3.90;3.72;;;22.90;87.50;;;;;;5065900;28;20261;-75
2021/07/09 06:26:01;;;;;;;4.10;3.83;;;22.90;86.20;;;;;;5065042;28;20245;-76
2021/07/09 06:28:27;;;;;;;5.30;4.65;;;23.00;87.20;;;;;;5068461;28;20174;-75
2021/07/09 06:30:52;;;;;;;4.35;4.13;;;23.00;86.80;;;;;;5059155;28;20634;-75
2021/07/09 06:33:18;;;;;;;4.45;3.85;;;23.00;86.50;;;;;;5066519;28;20187;-76
2021/07/09 06:35:44;;;;;;;4.03;3.83;;;23.10;86.50;;;;;;5063444;28;20334;-76
2021/07/09 06:38:09;;;;;;;4.90;4.60;;;23.20;86.10;;;;;;5060931;28;20182;-76
2021/07/09 06:40:35;;;;;;;4.82;4.55;;;23.30;86.20;;;;;;5053890;28;20186;-76
2021/07/09 06:43:01;;;;;;;5.22;4.45;;;23.40;86.10;;;;;;5067893;28;20197;-76
2021/07/09 06:45:27;;;;;;;4.22;4.03;;;23.40;86.00;;;;;;5054103;28;20680;-75
2021/07/09 06:47:52;;;;;;;4.90;4.60;;;23.50;85.60;;;;;;5065610;28;20196;-76
2021/07/09 06:50:18;;;;;;;4.72;4.35;;;23.60;85.60;;;;;;5058075;28;20191;-76
2021/07/09 06:52:45;;;;;;;5.43;5.00;;;23.60;85.30;;;;;;5070113;28;20183;-76
2021/07/09 06:55:12;;;;;;;7.82;4.15;;;23.70;85.40;;;;;;5064502;28;20210;-76
2021/07/09 06:57:38;;;;;;;6.32;5.10;;;23.80;85.20;;;;;;5068340;28;20183;-76
2021/07/09 07:00:06;;;;;;;4.82;4.53;;;23.90;84.80;;;;;;5070103;28;20643;-76
2021/07/09 07:02:32;;;;;;;8.57;5.03;;;23.90;84.60;;;;;;5069537;28;20175;-76
2021/07/09 07:04:59;;;;;;;5.63;4.85;;;24.00;84.50;;;;;;5061390;28;20183;-76
2021/07/09 07:07:24;;;;;;;5.47;5.10;;;24.00;84.20;;;;;;5069719;28;20179;-76
2021/07/09 07:09:50;;;;;;;6.78;4.93;;;24.20;84.30;;;;;;5061770;28;20758;-76
2021/07/09 07:12:16;;;;;;;5.00;4.55;;;24.20;83.80;;;;;;5069997;28;20179;-75
2021/07/09 07:14:41;;;;;;;4.75;4.40;;;24.30;83.40;;;;;;5061274;28;20190;-76
2021/07/09 07:17:08;;;;;;;5.82;5.13;;;24.30;83.10;;;;;;5069697;28;20215;-77
2021/07/09 07:19:34;;;;;;;5.45;4.95;;;24.40;81.90;;;;;;5069952;28;20175;-76
2021/07/09 07:22:02;;;;;;;4.93;4.50;;;24.40;81.80;;;;;;5070015;28;20179;-76
2021/07/09 07:24:30;;;;;;;4.95;4.50;;;24.40;82.40;;;;;;5069799;28;20652;-76
2021/07/09 07:26:59;;;;;;;4.22;4.00;;;24.50;82.30;;;;;;5069824;28;20229;-76
2021/07/09 07:29:25;;;;;;;5.00;4.68;;;24.60;82.20;;;;;;5069911;28;20183;-76
2021/07/09 07:31:51;;;;;;;5.85;4.40;;;24.60;82.60;;;;;;5068369;28;20172;-76
2021/07/09 07:34:18;;;;;;;4.95;4.55;;;24.70;82.10;;;;;;5061546;28;20175;-76
2021/07/09 07:36:43;;;;;;;5.28;4.82;;;24.80;82.00;;;;;;5069228;28;20353;-76
2021/07/09 07:39:10;;;;;;;5.28;4.90;;;24.90;81.50;;;;;;5069600;28;20202;-76
2021/07/09 07:41:37;;;;;;;4.68;4.43;;;25.00;81.20;;;;;;5069548;28;20220;-76
2021/07/09 07:44:04;;;;;;;4.35;4.05;;;25.00;80.50;;;;;;5069513;28;20190;-76
2021/07/09 07:46:29;;;;;;;4.93;4.63;;;25.10;80.30;;;;;;5069448;28;20179;-76
2021/07/09 07:48:56;;;;;;;4.15;3.88;;;25.10;80.00;;;;;;5069607;28;20575;-76
2021/07/09 07:51:23;;;;;;;5.63;5.13;;;25.20;80.30;;;;;;5060701;28;20189;-76
2021/07/09 07:53:50;;;;;;;5.03;4.63;;;25.30;79.90;;;;;;5065675;28;20180;-76
2021/07/09 07:56:17;;;;;;;5.22;4.93;;;25.30;79.90;;;;;;5066748;28;20211;-76
2021/07/09 07:58:43;;;;;;;6.75;4.75;;;25.40;79.70;;;;;;5069658;28;20232;-76
2021/07/09 08:01:09;;;;;;;5.35;4.95;;;25.40;79.20;;;;;;5069561;28;20171;-76
2021/07/09 08:03:36;;;;;;;5.55;5.05;;;25.50;79.60;;;;;;5068842;28;20190;-76
2021/07/09 08:06:02;;;;;;;5.25;4.85;;;25.50;79.60;;;;;;5067935;28;20210;-76
2021/07/09 08:08:29;;;;;;;4.57;4.38;;;25.60;79.00;;;;;;5067737;28;20198;-76
2021/07/09 08:10:55;;;;;;;6.80;3.53;;;25.70;78.00;;;;;;5067909;28;20175;-76
2021/07/09 08:13:20;;;;;;;4.55;4.28;;;25.70;77.00;;;;;;5067462;28;20182;-76
2021/07/09 08:15:46;;;;;;;4.80;4.50;;;25.70;77.40;;;;;;5067351;28;20214;-76
2021/07/09 08:18:12;;;;;;;5.20;4.78;;;25.80;77.60;;;;;;5067198;28;20179;-76
2021/07/09 08:20:40;;;;;;;4.60;4.32;;;25.80;77.70;;;;;;5067518;28;20561;-76
2021/07/09 08:23:06;;;;;;;4.63;4.32;;;25.90;77.30;;;;;;5067827;28;20682;-76
2021/07/09 08:25:31;;;;;;;4.72;4.45;;;25.90;76.80;;;;;;5069829;28;20279;-75
2021/07/09 08:27:57;;;;;;;4.47;4.18;;;26.00;76.70;;;;;;5060013;28;20281;-76
2021/07/09 08:30:23;;;;;;;4.10;3.85;;;26.00;76.90;;;;;;5063895;28;20192;-75
2021/07/09 08:32:48;;;;;;;4.10;3.85;;;26.10;76.90;;;;;;5063633;28;20286;-76
2021/07/09 08:35:14;;;;;;;4.07;3.78;;;26.20;76.60;;;;;;5066974;28;20180;-76
2021/07/09 08:37:41;;;;;;;4.00;3.70;;;26.20;75.90;;;;;;5053370;28;20187;-76
2021/07/09 08:40:08;;;;;;;3.75;3.40;;;26.30;75.80;;;;;;5059601;28;20180;-76
2021/07/09 08:42:34;;;;;;;3.85;3.55;;;26.40;75.40;;;;;;5059868;28;20190;-76
2021/07/09 08:45:00;;;;;;;3.15;3.00;;;26.40;74.40;;;;;;5059140;28;20180;-76
2021/07/09 08:47:29;;;;;;;3.60;3.08;;;26.50;74.10;;;;;;5053741;28;20175;-76
2021/07/09 08:49:55;;;;;;;3.42;3.20;;;26.60;74.40;;;;;;5058143;28;20179;-76
2021/07/09 08:52:21;;;;;;;3.25;2.97;;;26.60;72.70;;;;;;5062427;28;20179;-76
2021/07/09 08:54:46;;;;;;;3.78;3.53;;;26.70;72.60;;;;;;5062939;28;20648;-76
2021/07/09 08:57:15;;;;;;;3.85;3.25;;;26.70;71.60;;;;;;5066510;28;20221;-76
2021/07/09 08:59:41;;;;;;;3.53;3.00;;;26.70;72.10;;;;;;5066559;28;20190;-75
2021/07/09 09:02:07;;;;;;;3.22;3.10;;;26.70;73.40;;;;;;5060835;28;20559;-75
2021/07/09 09:04:35;;;;;;;2.70;2.60;;;26.80;71.70;;;;;;5065311;28;20254;-75
2021/07/09 09:07:05;;;;;;;4.88;2.83;;;26.90;72.20;;;;;;5062433;28;20198;-75
2021/07/09 09:09:33;;;;;;;2.88;2.78;;;27.00;69.80;;;;;;5062473;28;20629;-75
2021/07/09 09:12:14;;;;;;;2.97;2.88;;;27.10;71.10;;;;;;5064849;28;20178;-75
2021/07/09 09:14:40;;;;;;;5.70;3.15;;;27.10;70.20;;;;;;5057403;28;20203;-75
2021/07/09 09:17:33;;;;;;;3.58;3.38;;;27.20;71.20;;;;;;5067866;28;20210;-75
2021/07/09 09:20:04;;;;;;;3.90;3.30;;;27.30;72.30;;;;;;5021327;28;20192;-75
2021/07/09 09:22:30;;;;;;;3.50;3.30;;;27.40;71.70;;;;;;5017770;28;20211;-75
2021/07/09 09:24:58;;;;;;;3.08;2.90;;;27.60;71.50;;;;;;5026964;28;20197;-75
2021/07/09 09:27:24;;;;;;;3.78;3.55;;;27.70;71.30;;;;;;5016581;28;20189;-75
2021/07/09 09:29:49;;;;;;;2.92;2.90;;;27.80;71.80;;;;;;5022479;28;20206;-75
2021/07/09 09:32:16;;;;;;;3.85;3.65;;;27.90;71.00;;;;;;5019517;28;20196;-75
2021/07/09 09:34:46;;;;;;;4.35;3.47;;;28.10;69.90;;;;;;5025235;28;20201;-74
2021/07/09 09:37:16;;;;;;;3.63;3.30;;;28.10;68.20;;;;;;5009662;28;20323;-76
2021/07/09 09:39:44;;;;;;;3.50;3.17;;;28.10;68.80;;;;;;5013638;28;20207;-76
2021/07/09 09:42:18;;;;;;;3.42;3.22;;;28.20;70.50;;;;;;5012150;28;20642;-76
2021/07/09 09:44:45;;;;;;;3.50;3.40;;;28.20;70.00;;;;;;5015079;28;20310;-76
2021/07/09 09:47:31;;;;;;;3.80;3.65;;;28.30;69.00;;;;;;5008643;28;20756;-74
2021/07/09 09:50:00;;;;;;;3.72;3.42;;;28.40;69.90;;;;;;5018930;28;20244;-76
2021/07/09 09:52:39;;;;;;;3.13;2.80;;;28.50;69.90;;;;;;5018424;28;20583;-76
2021/07/09 09:55:10;;;;;;;3.30;3.00;;;28.60;68.20;;;;;;5022919;28;20267;-76
2021/07/09 09:57:37;;;;;;;2.70;2.60;;;28.70;68.00;;;;;;5054435;28;20190;-76
2021/07/09 10:00:09;;;;;;;3.20;3.00;;;28.70;66.70;;;;;;5057396;28;20651;-76
2021/07/09 10:02:36;;;;;;;3.08;2.88;;;28.70;67.00;;;;;;5065707;28;20203;-76
2021/07/09 10:05:05;;;;;;;2.85;2.75;;;28.80;67.70;;;;;;5057543;28;20189;-76
2021/07/09 10:07:35;;;;;;;2.50;2.40;;;28.90;67.00;;;;;;5065326;28;20221;-76
2021/07/09 10:10:03;;;;;;;2.63;2.53;;;29.00;66.50;;;;;;5065882;28;20631;-76
2021/07/09 10:12:30;;;;;;;2.42;2.33;;;29.20;67.10;;;;;;5065767;28;20190;-76
2021/07/09 10:14:57;;;;;;;2.88;2.70;;;29.40;66.30;;;;;;5065734;28;20179;-76
2021/07/09 10:17:26;;;;;;;3.38;3.28;;;29.70;65.70;;;;;;5065475;28;20207;-76
2021/07/09 10:19:53;;;;;;;2.80;2.70;;;29.90;66.20;;;;;;5066754;28;20260;-76
2021/07/09 10:22:19;;;;;;;3.05;2.90;;;30.20;65.50;;;;;;5069756;28;20178;-76
2021/07/09 10:24:49;;;;;;;2.45;2.35;;;30.40;64.40;;;;;;5070518;28;20212;-75
2021/07/09 10:27:20;;;;;;;3.40;3.25;;;30.80;63.40;;;;;;5064082;28;20717;-74
2021/07/09 10:29:48;;;;;;;4.47;3.38;;;31.10;62.50;;;;;;5062188;28;20627;-75
2021/07/09 10:32:53;;;;;;;3.90;3.70;;;31.40;63.30;;;;;;5063160;28;20179;-76
2021/07/09 10:35:32;;;;;;;3.40;3.10;;;31.80;62.80;;;;;;5069429;28;20228;-75
2021/07/09 10:38:19;;;;;;;4.13;2.83;;;32.10;61.70;;;;;;5060145;28;20198;-75
2021/07/09 10:40:45;;;;;;;3.30;2.70;;;32.50;61.60;;;;;;5061011;28;20174;-74
2021/07/09 10:43:13;;;;;;;3.30;3.20;;;32.90;61.50;;;;;;5070619;28;20186;-75
2021/07/09 10:45:39;;;;;;;6.22;3.45;;;33.40;60.40;;;;;;5055513;28;20190;-75
2021/07/09 10:48:09;;;;;;;2.83;2.70;;;34.00;59.20;;;;;;5061125;28;20178;-75
2021/07/09 10:50:44;;;;;;;3.92;3.05;;;34.50;58.30;;;;;;5055331;28;20245;-75
2021/07/09 10:53:13;;;;;;;2.90;2.78;;;35.10;56.90;;;;;;5066350;28;20255;-75
2021/07/09 10:55:51;;;;;;;2.42;2.42;;;35.70;56.90;;;;;;5063267;28;20225;-74
2021/07/09 10:58:25;;;;;;;2.38;2.22;;;36.10;56.20;;;;;;5068747;28;20660;-74
2021/07/09 11:00:55;;;;;;;1.85;1.85;;;36.70;55.30;;;;;;5069084;28;21005;-75
2021/07/09 11:03:25;;;;;;;2.40;2.30;;;37.10;53.70;;;;;;5060402;28;20634;-75
2021/07/09 11:05:51;;;;;;;2.15;2.05;;;37.20;54.80;;;;;;5069091;28;20186;-75
2021/07/09 11:08:32;;;;;;;2.13;2.13;;;37.40;53.70;;;;;;5068959;28;20678;-75
2021/07/09 11:11:06;;;;;;;3.45;2.08;;;37.90;52.70;;;;;;5069007;28;20182;-75
2021/07/09 11:13:41;;;;;;;2.55;2.45;;;38.30;51.80;;;;;;5068768;28;20197;-75
2021/07/09 11:16:27;;;;;;;2.30;2.20;;;38.30;52.20;;;;;;5068524;28;20213;-76
2021/07/09 11:18:57;;;;;;;1.52;1.52;;;38.20;52.10;;;;;;5068508;28;20224;-75
2021/07/09 11:21:32;;;;;;;2.80;2.58;;;38.20;52.80;;;;;;5068588;28;20178;-76
2021/07/09 11:23:58;;;;;;;2.28;2.17;;;38.40;52.50;;;;;;5067314;28;20670;-75
2021/07/09 11:26:26;;;;;;;2.00;2.00;;;38.50;51.00;;;;;;5065988;28;20242;-76
2021/07/09 11:28:52;;;;;;;1.52;1.52;;;38.30;51.10;;;;;;5062663;28;20179;-75
2021/07/09 11:31:33;;;;;;;1.80;1.80;;;38.00;51.60;;;;;;5060619;28;20217;-76
2021/07/09 11:34:04;;;;;;;4.30;1.90;;;37.90;50.30;;;;;;5068686;28;20174;-75
2021/07/09 11:36:57;;;;;;;1.75;1.73;;;37.90;52.60;;;;;;5062969;28;20694;-75
2021/07/09 11:39:28;;;;;;;3.05;1.85;;;38.50;51.00;;;;;;5053413;28;20619;-76
2021/07/09 11:42:11;;;;;;;2.08;1.77;;;39.00;50.80;;;;;;5067066;28;20194;-75
2021/07/09 11:44:51;;;;;;;1.98;1.75;;;39.20;50.50;;;;;;5075482;28;20670;-76
2021/07/09 11:47:19;;;;;;;1.70;1.63;;;39.30;48.80;;;;;;5052310;28;20279;-75
2021/07/09 11:49:48;;;;;;;1.45;1.35;;;39.20;50.80;;;;;;5056516;28;20671;-76
2021/07/09 11:52:19;;;;;;;1.83;1.73;;;39.20;49.40;;;;;;5059939;28;20185;-76
2021/07/09 11:54:45;;;;;;;1.85;1.75;;;39.00;49.90;;;;;;5063385;28;20297;-75
2021/07/09 11:57:17;;;;;;;7.03;1.85;;;39.00;51.10;;;;;;5066750;28;20213;-76
2021/07/09 11:59:44;;;;;;;2.08;1.75;;;39.20;50.20;;;;;;5067945;28;20174;-76
2021/07/09 12:02:14;;;;;;;1.95;1.85;;;39.20;50.70;;;;;;5061209;28;20179;-76
2021/07/09 12:04:45;;;;;;;3.22;1.55;;;39.40;51.70;;;;;;5063459;28;20179;-76
2021/07/09 12:07:31;;;;;;;1.45;1.45;;;39.80;48.10;;;;;;5063793;28;20178;-76
2021/07/09 12:09:57;;;;;;;1.60;1.60;;;39.90;47.90;;;;;;5060768;28;20225;-76
2021/07/09 12:12:24;;;;;;;1.95;1.90;;;39.70;49.80;;;;;;5067627;28;20182;-76
2021/07/09 12:14:52;;;;;;;1.75;1.75;;;39.60;48.90;;;;;;5067982;28;20556;-76
2021/07/09 12:17:19;;;;;;;1.63;1.63;;;39.40;47.50;;;;;;5067549;28;20602;-76
2021/07/09 12:19:58;;;;;;;1.88;1.88;;;39.50;49.80;;;;;;5067678;28;20617;-76
2021/07/09 12:22:27;;;;;;;1.90;1.90;;;39.50;47.90;;;;;;5067461;28;20261;-76
2021/07/09 12:24:53;;;;;;;2.10;2.00;;;39.50;48.10;;;;;;5070352;28;20212;-76
2021/07/09 12:27:20;;;;;;;1.70;1.60;;;39.10;47.70;;;;;;5062332;28;20183;-76
2021/07/09 12:29:46;;;;;;;1.75;1.75;;;38.50;49.80;;;;;;5064637;28;20192;-76
2021/07/09 12:32:12;;;;;;;2.90;2.17;;;38.50;50.20;;;;;;5063279;28;20204;-76
2021/07/09 12:34:38;;;;;;;2.22;2.13;;;39.00;50.30;;;;;;5068569;28;20179;-76
2021/07/09 12:37:04;;;;;;;2.05;2.00;;;39.40;49.00;;;;;;5054608;28;20222;-76
2021/07/09 12:39:31;;;;;;;1.67;1.67;;;39.70;50.00;;;;;;5054387;28;20179;-76
2021/07/09 12:42:09;;;;;;;2.10;2.10;;;40.00;49.40;;;;;;5056706;28;20643;-75
2021/07/09 12:44:35;;;;;;;2.13;2.13;;;40.30;47.40;;;;;;5058677;28;20272;-76
2021/07/09 12:47:01;;;;;;;2.03;1.95;;;40.60;48.10;;;;;;5051499;28;20277;-76
2021/07/09 12:49:27;;;;;;;2.30;2.30;;;41.10;47.60;;;;;;5055200;28;20185;-76
2021/07/09 12:51:52;;;;;;;1.88;1.77;;;41.70;48.80;;;;;;5056305;28;20651;-76